createdAt,value
2022-08-14T00:00:37.998Z,7.40
2022-08-14T00:01:37.982Z,7.20
2022-08-14T00:02:37.970Z,7.10
2022-08-14T00:03:37.890Z,6.80
2022-08-14T00:04:42.460Z,7.80
2022-08-14T00:05:38.867Z,6.60
2022-08-14T00:06:39.070Z,7.70
2022-08-14T00:07:41.951Z,7.20
2022-08-14T00:08:44.665Z,7.10
2022-08-14T00:09:55.189Z,7.60
2022-08-14T00:10:53.030Z,7.60
2022-08-14T00:11:38.949Z,7.50
2022-08-14T00:12:39.560Z,7.20
2022-08-14T00:13:37.843Z,7.90
2022-08-14T00:14:37.858Z,7.60
2022-08-14T00:15:44.097Z,7.90
2022-08-14T00:16:41.804Z,7.50
2022-08-14T00:17:48.427Z,8.00
2022-08-14T00:19:06.076Z,8.00
2022-08-14T00:19:38.848Z,7.80
2022-08-14T00:20:41.382Z,7.40
2022-08-14T00:21:38.888Z,7.50
2022-08-14T00:22:57.058Z,7.40
2022-08-14T00:23:38.859Z,7.60
2022-08-14T00:24:37.781Z,7.30
2022-08-14T00:25:42.472Z,7.50
2022-08-14T00:26:37.753Z,7.40
2022-08-14T00:27:38.274Z,7.90
2022-08-14T00:28:37.839Z,7.60
2022-08-14T00:29:40.613Z,7.20
2022-08-14T00:30:42.778Z,7.20
2022-08-14T00:31:45.771Z,7.90
2022-08-14T00:32:52.421Z,7.50
2022-08-14T00:33:50.737Z,7.10
2022-08-14T00:34:47.188Z,7.60
2022-08-14T00:36:36.496Z,7.40
2022-08-14T00:36:49.109Z,7.90
2022-08-14T00:37:39.814Z,7.50
2022-08-14T00:38:37.758Z,7.80
2022-08-14T00:39:37.858Z,7.40
2022-08-14T00:40:37.739Z,8.00
2022-08-14T00:41:39.202Z,7.60
2022-08-14T00:42:54.945Z,7.60
2022-08-14T00:43:43.135Z,7.60
2022-08-14T00:44:37.730Z,7.40
2022-08-14T00:45:38.757Z,8.30
2022-08-14T00:46:37.733Z,8.00
2022-08-14T00:47:43.245Z,7.80
2022-08-14T00:48:38.685Z,7.90
2022-08-14T00:49:42.851Z,8.10
2022-08-14T00:50:38.638Z,8.00
2022-08-14T00:51:38.413Z,7.90
2022-08-14T00:52:37.643Z,7.90
2022-08-14T00:53:37.653Z,7.50
2022-08-14T00:54:37.676Z,7.90
2022-08-14T00:55:38.940Z,7.90
2022-08-14T00:56:37.628Z,7.10
2022-08-14T00:57:37.579Z,7.50
2022-08-14T00:58:44.935Z,7.30
2022-08-14T00:59:38.581Z,8.50
2022-08-14T01:00:43.074Z,8.40
2022-08-14T01:01:38.636Z,8.60
2022-08-14T01:02:37.687Z,8.30
2022-08-14T01:03:37.604Z,8.10
2022-08-14T01:04:54.478Z,8.20
2022-08-14T01:05:51.000Z,8.40
2022-08-14T01:06:38.677Z,8.20
2022-08-14T01:07:47.270Z,8.50
2022-08-14T01:08:51.999Z,8.70
2022-08-14T01:09:39.204Z,9.00
2022-08-14T01:10:38.412Z,8.60
2022-08-14T01:11:37.519Z,8.60
2022-08-14T01:12:40.399Z,8.30
2022-08-14T01:13:42.552Z,8.60
2022-08-14T01:14:38.478Z,8.60
2022-08-14T01:15:57.926Z,8.70
2022-08-14T01:16:38.485Z,8.60
2022-08-14T01:17:37.600Z,8.60
2022-08-14T01:18:38.671Z,8.70
2022-08-14T01:19:37.425Z,8.30
2022-08-14T01:20:39.792Z,8.60
2022-08-14T01:21:46.993Z,8.90
2022-08-14T01:22:38.394Z,8.50
2022-08-14T01:23:46.573Z,8.60
2022-08-14T01:24:38.428Z,8.10
2022-08-14T01:25:37.858Z,8.50
2022-08-14T01:26:38.774Z,8.40
2022-08-14T01:27:56.686Z,8.40
2022-08-14T01:28:54.161Z,7.80
2022-08-14T01:29:59.165Z,8.30
2022-08-14T01:30:39.953Z,8.70
2022-08-14T01:31:38.409Z,8.20
2022-08-14T01:32:42.701Z,8.10
2022-08-14T01:33:52.182Z,8.50
2022-08-14T01:35:20.412Z,8.40
2022-08-14T01:36:05.307Z,8.50
2022-08-14T01:36:39.453Z,8.70
2022-08-14T01:37:37.351Z,8.30
2022-08-14T01:38:38.736Z,8.20
2022-08-14T01:39:38.446Z,8.40
2022-08-14T01:40:42.011Z,8.50
2022-08-14T01:41:38.374Z,9.00
2022-08-14T01:42:37.305Z,8.20
2022-08-14T01:43:37.301Z,8.00
2022-08-14T01:44:37.319Z,8.30
2022-08-14T01:45:40.251Z,8.40
2022-08-14T01:46:37.348Z,8.60
2022-08-14T01:47:37.542Z,8.60
2022-08-14T01:48:37.872Z,9.10
2022-08-14T01:49:46.468Z,9.30
2022-08-14T01:50:38.356Z,8.50
2022-08-14T01:51:37.273Z,8.90
2022-08-14T01:52:59.350Z,8.70
2022-08-14T01:53:38.293Z,8.80
2022-08-14T01:54:38.072Z,8.80
2022-08-14T01:55:37.394Z,9.20
2022-08-14T01:56:39.298Z,8.70
2022-08-14T01:57:55.304Z,9.60
2022-08-14T01:58:38.192Z,9.20
2022-08-14T01:59:38.735Z,9.00
2022-08-14T02:00:38.183Z,9.30
2022-08-14T02:01:37.268Z,8.60
2022-08-14T02:02:37.763Z,8.70
2022-08-14T02:03:37.325Z,9.10
2022-08-14T02:04:40.658Z,8.40
2022-08-14T02:05:38.922Z,8.30
2022-08-14T02:06:37.149Z,8.70
2022-08-14T02:07:53.351Z,8.40
2022-08-14T02:08:38.197Z,8.90
2022-08-14T02:09:38.135Z,8.70
2022-08-14T02:10:46.827Z,8.90
2022-08-14T02:11:38.166Z,9.40
2022-08-14T02:12:37.115Z,9.50
2022-08-14T02:13:37.189Z,9.20
2022-08-14T02:14:37.117Z,9.30
2022-08-14T02:15:37.191Z,9.20
2022-08-14T02:16:37.080Z,9.30
2022-08-14T02:17:37.053Z,9.30
2022-08-14T02:18:37.281Z,9.00
2022-08-14T02:19:37.057Z,9.40
2022-08-14T02:20:37.104Z,9.10
2022-08-14T02:21:43.680Z,8.60
2022-08-14T02:22:48.116Z,8.50
2022-08-14T02:23:38.028Z,9.20
2022-08-14T02:24:39.972Z,9.70
2022-08-14T02:25:37.023Z,9.30
2022-08-14T02:26:58.427Z,8.80
2022-08-14T02:28:24.234Z,8.90
2022-08-14T02:28:57.534Z,8.70
2022-08-14T02:30:00.210Z,8.70
2022-08-14T02:30:38.518Z,8.90
2022-08-14T02:31:43.550Z,9.20
2022-08-14T02:32:37.988Z,8.30
2022-08-14T02:33:39.096Z,8.60
2022-08-14T02:34:36.944Z,8.80
2022-08-14T02:35:40.475Z,9.70
2022-08-14T02:37:02.627Z,8.80
2022-08-14T02:37:48.085Z,9.10
2022-08-14T02:38:37.970Z,9.20
2022-08-14T02:39:37.203Z,8.70
2022-08-14T02:40:36.926Z,9.00
2022-08-14T02:41:38.986Z,8.70
2022-08-14T02:42:37.625Z,8.30
2022-08-14T02:43:46.170Z,8.30
2022-08-14T02:44:39.741Z,9.10
2022-08-14T02:45:44.161Z,8.80
2022-08-14T02:46:37.902Z,8.90
2022-08-14T02:47:38.866Z,9.30
2022-08-14T02:49:05.864Z,8.70
2022-08-14T02:49:37.883Z,9.10
2022-08-14T02:50:36.868Z,9.00
2022-08-14T02:51:37.086Z,8.90
2022-08-14T02:52:57.826Z,8.90
2022-08-14T02:53:38.861Z,8.80
2022-08-14T02:54:36.863Z,8.50
2022-08-14T02:55:36.888Z,8.60
2022-08-14T02:57:15.289Z,9.30
2022-08-14T02:57:40.140Z,9.10
2022-08-14T02:58:37.135Z,8.90
2022-08-14T02:59:36.898Z,8.40
2022-08-14T03:00:40.144Z,9.20
2022-08-14T03:01:43.720Z,9.00
2022-08-14T03:02:56.385Z,9.30
2022-08-14T03:03:38.862Z,8.60
2022-08-14T03:04:36.844Z,9.50
2022-08-14T03:05:37.113Z,9.60
2022-08-14T03:06:58.021Z,8.70
2022-08-14T03:07:37.782Z,9.20
2022-08-14T03:08:36.782Z,9.40
2022-08-14T03:10:24.319Z,8.70
2022-08-14T03:10:41.845Z,9.30
2022-08-14T03:11:37.738Z,9.20
2022-08-14T03:12:36.827Z,9.40
2022-08-14T03:13:36.760Z,9.30
2022-08-14T03:14:36.693Z,9.30
2022-08-14T03:15:36.776Z,9.00
2022-08-14T03:16:38.549Z,8.70
2022-08-14T03:17:41.347Z,9.70
2022-08-14T03:18:37.717Z,8.90
2022-08-14T03:19:36.694Z,9.10
2022-08-14T03:20:36.715Z,9.40
2022-08-14T03:21:36.736Z,9.50
2022-08-14T03:22:36.684Z,9.70
2022-08-14T03:23:38.775Z,9.30
2022-08-14T03:24:36.635Z,9.70
2022-08-14T03:25:37.316Z,8.70
2022-08-14T03:26:36.670Z,9.40
2022-08-14T03:27:48.549Z,9.60
2022-08-14T03:28:39.357Z,8.40
2022-08-14T03:29:36.621Z,8.90
2022-08-14T03:30:39.581Z,9.70
2022-08-14T03:31:36.631Z,9.40
2022-08-14T03:32:36.606Z,8.90
2022-08-14T03:33:37.694Z,8.70
2022-08-14T03:34:47.918Z,9.10
2022-08-14T03:35:40.308Z,9.30
2022-08-14T03:37:39.446Z,9.80
2022-08-14T03:39:10.637Z,9.10
2022-08-14T03:39:14.562Z,9.70
2022-08-14T03:39:37.665Z,9.30
2022-08-14T03:40:36.574Z,9.20
2022-08-14T03:41:36.631Z,9.00
2022-08-14T03:42:36.854Z,9.50
2022-08-14T03:43:36.537Z,8.90
2022-08-14T03:45:26.006Z,9.50
2022-08-14T03:45:37.539Z,9.20
2022-08-14T03:46:52.833Z,8.90
2022-08-14T03:47:46.392Z,9.80
2022-08-14T03:48:40.443Z,9.00
2022-08-14T03:49:42.349Z,9.40
2022-08-14T03:50:37.501Z,9.40
2022-08-14T03:51:36.503Z,9.10
2022-08-14T03:52:39.290Z,9.30
2022-08-14T03:53:37.494Z,9.00
2022-08-14T03:54:36.461Z,9.10
2022-08-14T03:55:36.476Z,9.00
2022-08-14T03:56:36.496Z,8.80
2022-08-14T03:57:37.176Z,8.70
2022-08-14T03:58:36.978Z,8.90
2022-08-14T03:59:36.446Z,9.30
2022-08-14T04:00:43.703Z,9.70
2022-08-14T04:01:39.157Z,9.50
2022-08-14T04:02:37.749Z,8.70
2022-08-14T04:03:38.442Z,9.20
2022-08-14T04:04:36.412Z,8.60
2022-08-14T04:05:38.102Z,8.50
2022-08-14T04:06:45.210Z,9.10
2022-08-14T04:07:37.420Z,9.10
2022-08-14T04:08:36.423Z,9.10
2022-08-14T04:09:36.413Z,9.00
2022-08-14T04:10:36.406Z,9.80
2022-08-14T04:11:36.374Z,9.80
2022-08-14T04:12:36.415Z,9.30
2022-08-14T04:13:36.340Z,8.90
2022-08-14T04:14:37.319Z,9.20
2022-08-14T04:15:56.621Z,9.50
2022-08-14T04:16:37.347Z,9.70
2022-08-14T04:17:36.336Z,9.40
2022-08-14T04:18:36.340Z,9.00
2022-08-14T04:19:36.657Z,9.20
2022-08-14T04:20:36.356Z,9.40
2022-08-14T04:21:39.994Z,9.50
2022-08-14T04:22:37.313Z,10.20
2022-08-14T04:23:36.316Z,9.20
2022-08-14T04:24:38.274Z,8.90
2022-08-14T04:25:36.283Z,8.70
2022-08-14T04:26:42.863Z,8.70
2022-08-14T04:28:01.517Z,9.20
2022-08-14T04:29:07.248Z,9.10
2022-08-14T04:29:37.273Z,8.90
2022-08-14T04:30:36.235Z,8.80
2022-08-14T04:32:58.294Z,9.00
2022-08-14T04:33:01.331Z,9.10
2022-08-14T04:33:37.413Z,9.10
2022-08-14T04:34:36.397Z,9.30
2022-08-14T04:35:55.312Z,9.80
2022-08-14T04:36:37.242Z,8.90
2022-08-14T04:37:36.272Z,9.30
2022-08-14T04:38:38.379Z,9.10
2022-08-14T04:39:36.269Z,8.90
2022-08-14T04:40:40.475Z,9.00
2022-08-14T04:41:36.176Z,9.70
2022-08-14T04:42:37.203Z,9.50
2022-08-14T04:43:38.467Z,9.80
2022-08-14T04:44:37.214Z,9.40
2022-08-14T04:45:36.179Z,8.60
2022-08-14T04:46:56.163Z,8.90
2022-08-14T04:47:37.156Z,8.20
2022-08-14T04:48:43.538Z,9.10
2022-08-14T04:49:38.455Z,9.00
2022-08-14T04:50:44.333Z,8.50
2022-08-14T04:51:46.230Z,8.60
2022-08-14T04:52:37.399Z,8.40
2022-08-14T04:53:41.046Z,9.00
2022-08-14T04:54:37.123Z,8.80
2022-08-14T04:55:36.082Z,8.30
2022-08-14T04:56:36.104Z,9.50
2022-08-14T04:57:36.063Z,9.00
2022-08-14T04:58:36.107Z,8.20
2022-08-14T04:59:36.048Z,8.40
2022-08-14T05:00:36.066Z,9.00
2022-08-14T05:01:40.354Z,8.70
2022-08-14T05:02:36.208Z,9.10
2022-08-14T05:03:37.637Z,8.20
2022-08-14T05:04:39.860Z,8.90
2022-08-14T05:05:37.029Z,8.40
2022-08-14T05:06:39.075Z,8.40
2022-08-14T05:07:53.980Z,8.50
2022-08-14T05:08:56.706Z,8.90
2022-08-14T05:09:36.999Z,8.70
2022-08-14T05:10:39.084Z,8.30
2022-08-14T05:11:37.023Z,8.60
2022-08-14T05:13:13.145Z,9.20
2022-08-14T05:13:53.264Z,9.10
2022-08-14T05:14:53.110Z,9.10
2022-08-14T05:15:36.971Z,8.80
2022-08-14T05:16:35.995Z,8.90
2022-08-14T05:17:44.213Z,9.00
2022-08-14T05:19:24.861Z,9.10
2022-08-14T05:19:44.305Z,8.70
2022-08-14T05:21:56.286Z,9.20
2022-08-14T05:21:56.780Z,8.60
2022-08-14T05:22:36.957Z,8.80
2022-08-14T05:23:37.350Z,8.60
2022-08-14T05:24:35.947Z,8.60
2022-08-14T05:25:35.904Z,8.10
2022-08-14T05:26:35.909Z,8.40
2022-08-14T05:27:35.920Z,8.90
2022-08-14T05:28:36.010Z,8.40
2022-08-14T05:29:35.908Z,8.60
2022-08-14T05:30:35.910Z,9.60
2022-08-14T05:31:39.711Z,9.00
2022-08-14T05:32:35.864Z,8.60
2022-08-14T05:33:35.897Z,9.70
2022-08-14T05:34:35.846Z,8.60
2022-08-14T05:35:35.902Z,9.30
2022-08-14T05:36:36.168Z,8.90
2022-08-14T05:37:35.851Z,8.60
2022-08-14T05:38:35.808Z,8.60
2022-08-14T05:39:35.900Z,9.30
2022-08-14T05:40:35.828Z,8.70
2022-08-14T05:41:52.675Z,8.80
2022-08-14T05:42:36.783Z,9.50
2022-08-14T05:43:41.328Z,9.50
2022-08-14T05:44:36.832Z,9.20
2022-08-14T05:45:35.867Z,9.00
2022-08-14T05:46:35.788Z,8.60
2022-08-14T05:47:39.582Z,9.30
2022-08-14T05:48:41.434Z,8.90
2022-08-14T05:49:38.257Z,8.80
2022-08-14T05:50:35.834Z,8.30
2022-08-14T05:51:35.740Z,8.50
2022-08-14T05:52:38.535Z,8.40
2022-08-14T05:53:35.772Z,8.90
2022-08-14T05:54:36.034Z,8.80
2022-08-14T05:55:36.826Z,8.20
2022-08-14T05:56:37.014Z,8.50
2022-08-14T05:57:35.704Z,8.50
2022-08-14T05:58:41.302Z,8.30
2022-08-14T05:59:39.623Z,8.20
2022-08-14T06:00:39.114Z,8.30
2022-08-14T06:01:36.700Z,8.00
2022-08-14T06:02:35.673Z,7.90
2022-08-14T06:03:35.640Z,8.00
2022-08-14T06:04:35.628Z,8.40
2022-08-14T06:05:38.850Z,8.10
2022-08-14T06:06:38.492Z,8.50
2022-08-14T06:07:36.699Z,7.80
2022-08-14T06:08:41.654Z,7.60
2022-08-14T06:09:40.472Z,7.90
2022-08-14T06:10:35.611Z,7.60
2022-08-14T06:11:35.624Z,7.60
2022-08-14T06:12:56.456Z,8.00
2022-08-14T06:13:44.533Z,8.00
2022-08-14T06:14:36.672Z,7.40
2022-08-14T06:15:35.562Z,8.20
2022-08-14T06:16:35.575Z,7.80
2022-08-14T06:17:46.312Z,7.30
2022-08-14T06:18:36.607Z,7.20
2022-08-14T06:19:35.549Z,7.90
2022-08-14T06:20:35.519Z,8.20
2022-08-14T06:21:35.545Z,8.20
2022-08-14T06:22:35.542Z,7.20
2022-08-14T06:23:35.512Z,7.50
2022-08-14T06:24:35.776Z,7.50
2022-08-14T06:25:35.564Z,7.30
2022-08-14T06:26:35.539Z,7.80
2022-08-14T06:27:35.481Z,7.60
2022-08-14T06:28:35.496Z,7.60
2022-08-14T06:29:35.487Z,7.90
2022-08-14T06:30:45.900Z,7.70
2022-08-14T06:31:36.457Z,7.30
2022-08-14T06:32:38.332Z,7.30
2022-08-14T06:35:02.340Z,7.60
2022-08-14T06:35:09.432Z,7.50
2022-08-14T06:35:36.506Z,7.40
2022-08-14T06:36:35.446Z,7.60
2022-08-14T06:37:35.445Z,7.10
2022-08-14T06:38:35.409Z,7.00
2022-08-14T06:39:36.581Z,8.10
2022-08-14T06:40:35.443Z,7.60
2022-08-14T06:41:52.654Z,7.60
2022-08-14T06:42:36.436Z,7.70
2022-08-14T06:43:35.466Z,7.40
2022-08-14T06:44:35.355Z,7.60
2022-08-14T06:45:36.051Z,7.80
2022-08-14T06:46:37.028Z,8.00
2022-08-14T06:47:36.345Z,7.30
2022-08-14T06:48:35.395Z,7.20
2022-08-14T06:49:40.007Z,7.50
2022-08-14T06:50:36.326Z,7.70
2022-08-14T06:51:38.932Z,7.20
2022-08-14T06:52:36.350Z,7.50
2022-08-14T06:53:35.341Z,7.20
2022-08-14T06:54:35.328Z,7.90
2022-08-14T06:55:37.088Z,7.70
2022-08-14T06:56:36.323Z,7.60
2022-08-14T06:57:35.341Z,7.80
2022-08-14T06:58:35.297Z,7.80
2022-08-14T06:59:35.279Z,8.20
2022-08-14T07:00:36.266Z,7.80
2022-08-14T07:01:35.321Z,7.40
2022-08-14T07:02:35.938Z,7.40
2022-08-14T07:03:35.248Z,7.40
2022-08-14T07:04:35.260Z,6.90
2022-08-14T07:05:35.291Z,7.20
2022-08-14T07:06:45.690Z,7.30
2022-08-14T07:07:36.319Z,7.10
2022-08-14T07:08:35.265Z,7.80
2022-08-14T07:09:40.650Z,7.90
2022-08-14T07:10:36.216Z,7.70
2022-08-14T07:11:35.221Z,7.60
2022-08-14T07:13:01.083Z,7.60
2022-08-14T07:13:36.294Z,7.90
2022-08-14T07:14:35.179Z,8.20
2022-08-14T07:15:40.013Z,8.10
2022-08-14T07:16:36.180Z,8.00
2022-08-14T07:17:36.435Z,8.10
2022-08-14T07:18:35.173Z,7.60
2022-08-14T07:19:35.159Z,7.90
2022-08-14T07:20:35.185Z,7.60
2022-08-14T07:21:35.169Z,8.00
2022-08-14T07:22:56.223Z,8.40
2022-08-14T07:23:40.258Z,8.50
2022-08-14T07:24:36.133Z,8.00
2022-08-14T07:25:35.124Z,7.60
2022-08-14T07:26:35.130Z,6.70
2022-08-14T07:27:36.146Z,8.20
2022-08-14T07:28:35.968Z,7.60
2022-08-14T07:29:36.118Z,7.00
2022-08-14T07:30:35.346Z,7.70
2022-08-14T07:31:36.194Z,8.20
2022-08-14T07:32:35.179Z,7.80
2022-08-14T07:33:35.113Z,8.00
2022-08-14T07:34:40.785Z,7.30
2022-08-14T07:35:37.515Z,7.00
2022-08-14T07:36:36.115Z,7.20
2022-08-14T07:37:35.067Z,7.40
2022-08-14T07:38:37.976Z,7.50
2022-08-14T07:39:36.089Z,7.20
2022-08-14T07:40:35.036Z,7.80
2022-08-14T07:41:35.949Z,8.00
2022-08-14T07:42:35.102Z,6.90
2022-08-14T07:43:35.007Z,7.60
2022-08-14T07:44:45.742Z,7.50
2022-08-14T07:45:35.986Z,7.50
2022-08-14T07:46:35.019Z,7.30
2022-08-14T07:47:34.971Z,7.60
2022-08-14T07:48:35.020Z,7.80
2022-08-14T07:49:35.056Z,7.60
2022-08-14T07:50:34.978Z,8.00
2022-08-14T07:51:37.006Z,8.10
2022-08-14T07:52:34.971Z,7.70
2022-08-14T07:53:39.163Z,7.70
2022-08-14T07:54:35.934Z,7.50
2022-08-14T07:55:34.972Z,7.60
2022-08-14T07:56:47.134Z,7.40
2022-08-14T07:57:35.967Z,7.40
2022-08-14T07:58:39.012Z,7.20
2022-08-14T07:59:42.512Z,7.80
2022-08-14T08:00:35.938Z,7.40
2022-08-14T08:01:35.014Z,6.80
2022-08-14T08:02:34.967Z,7.40
2022-08-14T08:03:34.960Z,7.70
2022-08-14T08:04:34.910Z,7.70
2022-08-14T08:05:34.861Z,7.50
2022-08-14T08:06:34.885Z,7.50
2022-08-14T08:07:34.866Z,7.60
2022-08-14T08:08:34.928Z,7.80
2022-08-14T08:09:34.917Z,7.30
2022-08-14T08:11:01.474Z,7.90
2022-08-14T08:11:37.092Z,7.50
2022-08-14T08:12:35.027Z,7.30
2022-08-14T08:13:34.821Z,7.40
2022-08-14T08:14:56.916Z,7.50
2022-08-14T08:15:35.850Z,8.10
2022-08-14T08:16:34.860Z,7.60
2022-08-14T08:17:38.351Z,6.90
2022-08-14T08:18:36.159Z,7.00
2022-08-14T08:19:36.991Z,6.90
2022-08-14T08:20:34.777Z,7.20
2022-08-14T08:21:35.590Z,7.60
2022-08-14T08:22:34.826Z,7.20
2022-08-14T08:23:40.901Z,7.10
2022-08-14T08:24:35.760Z,7.40
2022-08-14T08:25:34.748Z,6.60
2022-08-14T08:26:35.793Z,7.50
2022-08-14T08:27:34.763Z,7.30
2022-08-14T08:28:34.764Z,6.90
2022-08-14T08:29:34.733Z,6.80
2022-08-14T08:30:34.743Z,7.20
2022-08-14T08:31:35.265Z,7.10
2022-08-14T08:32:34.709Z,6.80
2022-08-14T08:33:37.350Z,6.60
2022-08-14T08:34:34.765Z,6.40
2022-08-14T08:35:46.352Z,7.20
2022-08-14T08:36:35.753Z,7.00
2022-08-14T08:37:40.270Z,7.30
2022-08-14T08:39:14.739Z,6.90
2022-08-14T08:40:01.400Z,6.90
2022-08-14T08:40:35.786Z,7.00
2022-08-14T08:41:35.647Z,6.50
2022-08-14T08:42:38.668Z,6.50
2022-08-14T08:43:35.651Z,7.00
2022-08-14T08:44:34.710Z,6.90
2022-08-14T08:45:34.664Z,6.70
2022-08-14T08:46:35.801Z,6.50
2022-08-14T08:47:34.737Z,6.90
2022-08-14T08:48:36.469Z,6.80
2022-08-14T08:49:36.409Z,6.50
2022-08-14T08:51:21.367Z,6.60
2022-08-14T08:52:24.846Z,6.60
2022-08-14T08:53:23.533Z,6.60
2022-08-14T08:54:26.546Z,6.80
2022-08-14T08:55:23.523Z,6.30
2022-08-14T08:56:30.662Z,6.60
2022-08-14T08:57:24.259Z,6.70
2022-08-14T08:58:25.066Z,6.50
2022-08-14T08:59:22.556Z,6.80
2022-08-14T09:00:25.196Z,6.70
2022-08-14T09:01:23.536Z,6.60
2022-08-14T09:02:22.514Z,6.20
2022-08-14T09:03:22.499Z,6.10
2022-08-14T09:04:22.510Z,6.30
2022-08-14T09:05:22.925Z,6.60
2022-08-14T09:06:56.978Z,6.30
2022-08-14T09:07:23.507Z,6.10
2022-08-14T09:08:30.834Z,6.50
2022-08-14T09:09:23.458Z,6.50
2022-08-14T09:10:22.453Z,6.80
2022-08-14T09:11:22.465Z,6.40
2022-08-14T09:12:22.461Z,6.80
2022-08-14T09:13:22.423Z,6.10
2022-08-14T09:14:22.405Z,6.20
2022-08-14T09:15:22.408Z,6.40
2022-08-14T09:16:23.531Z,6.30
2022-08-14T09:17:25.926Z,6.40
2022-08-14T09:18:22.390Z,6.30
2022-08-14T09:19:22.392Z,6.10
2022-08-14T09:20:29.672Z,6.40
2022-08-14T09:21:24.175Z,6.30
2022-08-14T09:22:35.765Z,6.00
2022-08-14T09:23:34.681Z,6.50
2022-08-14T09:24:29.653Z,6.20
2022-08-14T09:25:58.579Z,5.50
2022-08-14T09:26:23.439Z,5.80
2022-08-14T09:27:23.483Z,5.80
2022-08-14T09:28:22.337Z,5.80
2022-08-14T09:29:23.540Z,5.80
2022-08-14T09:30:32.840Z,5.30
2022-08-14T09:31:23.321Z,5.60
2022-08-14T09:32:59.057Z,4.70
2022-08-14T09:33:23.351Z,4.40
2022-08-14T09:34:27.176Z,5.30
2022-08-14T09:35:23.302Z,4.90
2022-08-14T09:36:22.326Z,5.10
2022-08-14T09:37:22.268Z,4.70
2022-08-14T09:38:26.251Z,4.70
2022-08-14T09:39:23.799Z,5.00
2022-08-14T09:40:22.307Z,5.00
2022-08-14T09:41:22.217Z,5.00
2022-08-14T09:42:33.413Z,4.80
2022-08-14T09:43:24.227Z,5.00
2022-08-14T09:44:22.269Z,4.80
2022-08-14T09:45:22.360Z,4.60
2022-08-14T09:46:25.803Z,4.50
2022-08-14T09:47:22.236Z,5.30
2022-08-14T09:48:27.638Z,5.10
2022-08-14T09:49:23.185Z,4.80
2022-08-14T09:50:22.162Z,5.00
2022-08-14T09:51:22.258Z,4.80
2022-08-14T09:52:33.038Z,5.00
2022-08-14T09:53:23.142Z,4.60
2022-08-14T09:54:23.425Z,5.10
2022-08-14T09:55:22.177Z,4.50
2022-08-14T09:56:24.336Z,4.60
2022-08-14T09:57:23.182Z,5.10
2022-08-14T09:58:23.153Z,4.80
2022-08-14T09:59:22.190Z,4.90
2022-08-14T10:00:28.782Z,4.60
2022-08-14T10:01:24.870Z,4.60
2022-08-14T10:02:22.133Z,4.80
2022-08-14T10:03:22.119Z,4.50
2022-08-14T10:04:33.024Z,4.80
2022-08-14T10:05:23.073Z,5.10
2022-08-14T10:06:22.096Z,4.30
2022-08-14T10:07:22.196Z,4.60
2022-08-14T10:08:26.334Z,4.80
2022-08-14T10:09:22.033Z,4.80
2022-08-14T10:10:23.793Z,5.00
2022-08-14T10:11:23.151Z,4.60
2022-08-14T10:12:28.662Z,4.40
2022-08-14T10:13:23.677Z,4.90
2022-08-14T10:14:29.517Z,4.60
2022-08-14T10:15:23.880Z,4.30
2022-08-14T10:16:27.439Z,4.50
2022-08-14T10:17:23.074Z,5.00
2022-08-14T10:18:21.990Z,4.50
2022-08-14T10:19:21.998Z,4.30
2022-08-14T10:20:39.531Z,4.70
2022-08-14T10:21:22.985Z,4.70
2022-08-14T10:23:15.008Z,4.70
2022-08-14T10:23:23.364Z,5.10
2022-08-14T10:24:21.950Z,4.80
2022-08-14T10:25:22.534Z,4.70
2022-08-14T10:26:22.979Z,4.50
2022-08-14T10:27:22.909Z,4.40
2022-08-14T10:28:39.370Z,4.50
2022-08-14T10:29:23.616Z,4.40
2022-08-14T10:30:22.466Z,4.60
2022-08-14T10:31:25.355Z,4.90
2022-08-14T10:32:28.377Z,4.50
2022-08-14T10:33:23.002Z,4.50
2022-08-14T10:34:29.140Z,4.60
2022-08-14T10:35:31.091Z,4.90
2022-08-14T10:36:34.619Z,4.60
2022-08-14T10:37:23.172Z,4.70
2022-08-14T10:38:21.890Z,4.70
2022-08-14T10:39:21.875Z,4.10
2022-08-14T10:40:37.554Z,4.40
2022-08-14T10:41:22.839Z,4.60
2022-08-14T10:42:22.878Z,4.50
2022-08-14T10:43:23.271Z,4.50
2022-08-14T10:44:21.998Z,4.30
2022-08-14T10:45:22.027Z,4.70
2022-08-14T10:47:40.565Z,4.40
2022-08-14T10:47:41.429Z,4.50
2022-08-14T10:48:38.244Z,4.50
2022-08-14T10:49:23.375Z,4.60
2022-08-14T10:50:21.774Z,4.70
2022-08-14T10:51:21.794Z,4.80
2022-08-14T10:52:22.007Z,5.00
2022-08-14T10:53:21.806Z,4.40
2022-08-14T10:54:39.810Z,4.10
2022-08-14T10:55:22.766Z,4.30
2022-08-14T10:56:34.025Z,4.50
2022-08-14T10:57:22.830Z,4.70
2022-08-14T10:58:21.819Z,4.50
2022-08-14T10:59:21.754Z,4.70
2022-08-14T11:00:29.454Z,4.50
2022-08-14T11:01:22.698Z,4.80
2022-08-14T11:02:35.934Z,4.80
2022-08-14T11:03:26.694Z,4.30
2022-08-14T11:04:25.068Z,4.50
2022-08-14T11:05:21.731Z,4.80
2022-08-14T11:06:21.705Z,4.60
2022-08-14T11:07:21.709Z,4.60
2022-08-14T11:08:21.669Z,4.80
2022-08-14T11:09:21.690Z,5.00
2022-08-14T11:10:21.683Z,4.40
2022-08-14T11:11:21.649Z,4.20
2022-08-14T11:12:34.513Z,4.80
2022-08-14T11:13:23.836Z,4.30
2022-08-14T11:14:22.629Z,4.40
2022-08-14T11:15:22.637Z,4.30
2022-08-14T11:16:21.588Z,4.30
2022-08-14T11:17:21.920Z,4.60
2022-08-14T11:18:35.703Z,4.80
2022-08-14T11:19:24.357Z,4.50
2022-08-14T11:20:21.557Z,4.40
2022-08-14T11:21:21.651Z,4.20
2022-08-14T11:22:52.967Z,4.50
2022-08-14T11:23:22.587Z,4.00
2022-08-14T11:24:55.383Z,5.10
2022-08-14T11:25:22.558Z,4.70
2022-08-14T11:26:21.559Z,5.00
2022-08-14T11:27:27.067Z,4.80
2022-08-14T11:28:47.683Z,4.40
2022-08-14T11:29:24.682Z,4.20
2022-08-14T11:30:50.849Z,4.40
2022-08-14T11:31:22.487Z,4.10
2022-08-14T11:32:21.498Z,4.40
2022-08-14T11:33:21.549Z,4.50
2022-08-14T11:34:32.199Z,4.20
2022-08-14T11:35:22.586Z,4.70
2022-08-14T11:36:21.530Z,4.50
2022-08-14T11:37:36.412Z,4.50
2022-08-14T11:38:22.464Z,4.60
2022-08-14T11:39:34.028Z,4.40
2022-08-14T11:40:28.669Z,4.40
2022-08-14T11:41:22.518Z,4.40
2022-08-14T11:42:57.143Z,4.90
2022-08-14T11:43:22.722Z,4.80
2022-08-14T11:44:45.540Z,4.60
2022-08-14T11:45:23.390Z,4.60
2022-08-14T11:46:30.667Z,5.00
2022-08-14T11:47:22.590Z,5.20
2022-08-14T11:49:02.890Z,5.40
2022-08-14T11:49:22.366Z,5.50
2022-08-14T11:50:33.473Z,5.30
2022-08-14T11:51:23.876Z,5.50
2022-08-14T11:52:21.706Z,5.60
2022-08-14T11:53:21.367Z,4.60
2022-08-14T11:54:34.674Z,5.10
2022-08-14T11:55:25.509Z,5.10
2022-08-14T11:56:25.678Z,5.10
2022-08-14T11:57:22.779Z,4.70
2022-08-14T11:58:24.097Z,4.70
2022-08-14T11:59:26.569Z,4.60
2022-08-14T12:00:22.358Z,4.30
2022-08-14T12:01:22.384Z,4.10
2022-08-14T12:02:39.163Z,4.00
2022-08-14T12:03:37.309Z,4.80
2022-08-14T12:04:33.476Z,4.30
2022-08-14T12:05:22.362Z,4.30
2022-08-14T12:06:29.438Z,4.30
2022-08-14T12:07:22.264Z,4.80
2022-08-14T12:08:24.459Z,4.90
2022-08-14T12:09:22.055Z,4.10
2022-08-14T12:10:26.091Z,4.30
2022-08-14T12:11:22.254Z,4.70
2022-08-14T12:12:35.523Z,4.50
2022-08-14T12:13:22.513Z,4.30
2022-08-14T12:14:34.943Z,4.20
2022-08-14T12:15:22.210Z,4.00
2022-08-14T12:16:22.777Z,4.20
2022-08-14T12:17:23.414Z,4.40
2022-08-14T12:18:21.207Z,4.20
2022-08-14T12:19:21.191Z,4.20
2022-08-14T12:20:30.000Z,4.30
2022-08-14T12:21:22.198Z,3.80
2022-08-14T12:22:29.897Z,4.30
2022-08-14T12:23:22.177Z,4.00
2022-08-14T12:24:35.736Z,3.90
2022-08-14T12:25:24.880Z,4.10
2022-08-14T12:26:39.971Z,4.00
2022-08-14T12:27:24.864Z,3.90
2022-08-14T12:28:27.244Z,3.70
2022-08-14T12:29:22.152Z,3.50
2022-08-14T12:30:21.405Z,4.00
2022-08-14T12:31:21.389Z,4.10
2022-08-14T12:32:21.141Z,4.10
2022-08-14T12:33:21.100Z,4.20
2022-08-14T12:34:24.049Z,3.80
2022-08-14T12:35:21.083Z,3.70
2022-08-14T12:36:21.110Z,3.80
2022-08-14T12:37:21.139Z,3.80
2022-08-14T12:38:21.373Z,3.80
2022-08-14T12:39:21.257Z,3.80
2022-08-14T12:40:21.176Z,3.50
2022-08-14T12:41:21.824Z,3.50
2022-08-14T12:42:34.155Z,3.80
2022-08-14T12:43:22.021Z,3.40
2022-08-14T12:44:21.131Z,3.60
2022-08-14T12:45:21.015Z,3.70
2022-08-14T12:46:22.769Z,3.40
2022-08-14T12:47:22.002Z,3.80
2022-08-14T12:48:31.552Z,3.40
2022-08-14T12:49:22.500Z,3.80
2022-08-14T12:50:20.979Z,3.60
2022-08-14T12:51:21.712Z,3.60
2022-08-14T12:52:20.973Z,3.40
2022-08-14T12:53:22.101Z,3.80
2022-08-14T12:54:28.500Z,3.70
2022-08-14T12:55:21.999Z,3.80
2022-08-14T12:56:22.127Z,3.60
2022-08-14T12:57:21.939Z,3.70
2022-08-14T12:58:35.013Z,3.80
2022-08-14T12:59:21.960Z,3.10
2022-08-14T13:00:22.512Z,3.90
2022-08-14T13:01:21.068Z,3.60
2022-08-14T13:02:20.949Z,3.60
2022-08-14T13:03:20.941Z,4.20
2022-08-14T13:04:20.874Z,3.50
2022-08-14T13:05:20.901Z,3.30
2022-08-14T13:06:20.941Z,3.40
2022-08-14T13:07:20.946Z,3.50
2022-08-14T13:08:34.109Z,3.50
2022-08-14T13:09:23.299Z,3.40
2022-08-14T13:10:51.760Z,3.10
2022-08-14T13:11:23.750Z,3.10
2022-08-14T13:12:32.143Z,3.40
2022-08-14T13:13:22.233Z,3.60
2022-08-14T13:14:26.080Z,3.50
2022-08-14T13:15:22.813Z,3.00
2022-08-14T13:16:38.043Z,3.30
2022-08-14T13:17:21.886Z,3.30
2022-08-14T13:18:20.789Z,3.40
2022-08-14T13:19:20.789Z,3.10